createdAt,value
2024-02-13T00:00:35.705Z,101258.28
2024-02-13T00:03:03.458Z,101261.59
2024-02-13T00:05:30.769Z,101256.28
2024-02-13T00:08:01.262Z,101255.16
2024-02-13T00:10:29.654Z,101267.34
2024-02-13T00:12:57.019Z,101263.81
2024-02-13T00:15:24.152Z,101266.44
2024-02-13T00:17:52.603Z,101267.50
2024-02-13T00:20:20.695Z,101269.34
2024-02-13T00:22:51.052Z,101270.88
2024-02-13T00:25:19.664Z,101269.09
2024-02-13T00:27:48.140Z,101262.03
2024-02-13T00:30:15.839Z,101275.03
2024-02-13T00:32:43.930Z,101273.34
2024-02-13T00:35:11.767Z,101277.59
2024-02-13T00:37:39.126Z,101275.03
2024-02-13T00:40:10.877Z,101275.84
2024-02-13T00:42:38.074Z,101268.81
2024-02-13T00:45:08.791Z,101283.34
2024-02-13T00:47:36.197Z,101276.56
2024-02-13T00:50:04.150Z,101285.78
2024-02-13T00:52:31.368Z,101292.63
2024-02-13T00:54:59.404Z,101275.13
2024-02-13T00:57:26.561Z,101292.50
2024-02-13T00:59:54.201Z,101295.13
2024-02-13T01:02:21.557Z,101300.13
2024-02-13T01:04:49.314Z,101304.50
2024-02-13T01:07:18.453Z,101302.81
2024-02-13T01:09:45.840Z,101301.16
2024-02-13T01:12:13.657Z,101300.97
2024-02-13T01:14:40.810Z,101307.06
2024-02-13T01:17:07.979Z,101299.22
2024-02-13T01:19:35.144Z,101306.28
2024-02-13T01:22:02.608Z,101305.78
2024-02-13T01:24:30.401Z,101307.88
2024-02-13T01:26:59.022Z,101305.97
2024-02-13T01:29:26.593Z,101303.25
2024-02-13T01:31:54.892Z,101303.72
2024-02-13T01:34:22.789Z,101312.28
2024-02-13T01:36:50.063Z,101306.69
2024-02-13T01:39:17.096Z,101320.88
2024-02-13T01:41:44.333Z,101319.91
2024-02-13T01:44:11.524Z,101316.38
2024-02-13T01:46:40.751Z,101324.88
2024-02-13T01:49:10.214Z,101328.06
2024-02-13T01:51:40.388Z,101323.13
2024-02-13T01:54:11.769Z,101326.63
2024-02-13T01:56:41.124Z,101328.88
2024-02-13T01:59:09.382Z,101329.59
2024-02-13T02:01:37.836Z,101327.75
2024-02-13T02:04:07.309Z,101321.78
2024-02-13T02:06:36.085Z,101329.41
2024-02-13T02:09:04.682Z,101323.41
2024-02-13T02:11:31.994Z,101321.78
2024-02-13T02:14:01.636Z,101323.91
2024-02-13T02:16:28.891Z,101327.66
2024-02-13T02:18:56.845Z,101337.16
2024-02-13T02:21:24.220Z,101330.44
2024-02-13T02:23:51.449Z,101339.91
2024-02-13T02:26:18.777Z,101328.56
2024-02-13T02:28:47.466Z,101337.84
2024-02-13T02:31:16.740Z,101340.41
2024-02-13T02:33:45.058Z,101332.88
2024-02-13T02:36:12.456Z,101334.31
2024-02-13T02:38:39.823Z,101329.09
2024-02-13T02:41:08.310Z,101331.91
2024-02-13T02:43:38.710Z,101334.47
2024-02-13T02:46:06.599Z,101333.09
2024-02-13T02:48:34.504Z,101327.28
2024-02-13T02:51:02.185Z,101322.78
2024-02-13T02:53:29.630Z,101318.13
2024-02-13T02:55:56.925Z,101329.28
2024-02-13T02:58:24.842Z,101321.22
2024-02-13T03:00:53.242Z,101327.16
2024-02-13T03:03:23.787Z,101328.84
2024-02-13T03:05:52.682Z,101337.91
2024-02-13T03:08:20.397Z,101332.78
2024-02-13T03:10:47.585Z,101326.91
2024-02-13T03:13:15.322Z,101328.84
2024-02-13T03:15:42.613Z,101327.88
2024-02-13T03:18:10.868Z,101333.31
2024-02-13T03:20:38.265Z,101337.34
2024-02-13T03:23:05.540Z,101333.91
2024-02-13T03:25:32.697Z,101341.44
2024-02-13T03:27:59.891Z,101344.06
2024-02-13T03:30:27.109Z,101349.19
2024-02-13T03:32:54.401Z,101346.78
2024-02-13T03:35:21.941Z,101344.78
2024-02-13T03:37:49.060Z,101343.75
2024-02-13T03:40:19.123Z,101341.75
2024-02-13T03:42:46.467Z,101349.59
2024-02-13T03:45:13.590Z,101333.03
2024-02-13T03:47:40.795Z,101337.84
2024-02-13T03:50:08.747Z,101322.78
2024-02-13T03:52:37.134Z,101343.19
2024-02-13T03:55:05.938Z,101333.38
2024-02-13T03:57:33.167Z,101337.84
2024-02-13T04:00:00.864Z,101338.06
2024-02-13T04:02:28.163Z,101334.31
2024-02-13T04:04:56.158Z,101336.38
2024-02-13T04:07:24.226Z,101344.88
2024-02-13T04:09:51.410Z,101344.47
2024-02-13T04:12:18.658Z,101353.88
2024-02-13T04:14:45.890Z,101349.78
2024-02-13T04:17:13.822Z,101346.81
2024-02-13T04:19:41.070Z,101350.56
2024-02-13T04:22:09.056Z,101346.97
2024-02-13T04:24:36.216Z,101348.06
2024-02-13T04:27:04.158Z,101347.34
2024-02-13T04:29:31.550Z,101348.97
2024-02-13T04:32:00.354Z,101352.16
2024-02-13T04:34:30.776Z,101347.75
2024-02-13T04:36:59.084Z,101352.06
2024-02-13T04:39:26.203Z,101351.75
2024-02-13T04:44:21.281Z,101363.28
2024-02-13T04:46:48.629Z,101368.56
2024-02-13T04:49:15.969Z,101360.06
2024-02-13T04:51:44.672Z,101361.91
2024-02-13T04:54:11.880Z,101360.31
2024-02-13T04:56:39.309Z,101369.22
2024-02-13T04:59:08.806Z,101368.53
2024-02-13T05:01:40.690Z,101379.03
2024-02-13T05:04:17.660Z,101361.81
2024-02-13T05:07:03.871Z,101361.66
2024-02-13T05:09:31.076Z,101372.25
2024-02-13T05:11:58.348Z,101362.63
2024-02-13T05:14:25.691Z,101367.13
2024-02-13T05:16:53.026Z,101363.59
2024-02-13T05:19:22.248Z,101357.41
2024-02-13T05:21:51.903Z,101357.75
2024-02-13T05:24:19.486Z,101355.56
2024-02-13T05:26:47.026Z,101360.22
2024-02-13T05:29:14.894Z,101367.34
2024-02-13T05:31:42.482Z,101363.47
2024-02-13T05:34:11.076Z,101366.16
2024-02-13T05:36:38.452Z,101376.38
2024-02-13T05:39:05.725Z,101370.41
2024-02-13T05:41:33.189Z,101375.59
2024-02-13T05:44:04.008Z,101374.06
2024-02-13T05:46:31.632Z,101372.25
2024-02-13T05:49:01.723Z,101365.16
2024-02-13T05:51:29.024Z,101361.03
2024-02-13T05:53:56.645Z,101362.88
2024-02-13T05:56:27.956Z,101365.53
2024-02-13T05:58:58.817Z,101367.00
2024-02-13T06:01:26.528Z,101366.28
2024-02-13T06:03:57.094Z,101362.75
2024-02-13T06:06:25.221Z,101367.41
2024-02-13T06:08:54.530Z,101353.75
2024-02-13T06:11:22.653Z,101363.66
2024-02-13T06:13:50.724Z,101351.75
2024-02-13T06:16:19.040Z,101368.09
2024-02-13T06:18:50.169Z,101367.91
2024-02-13T06:21:22.229Z,101372.25
2024-02-13T06:23:51.037Z,101373.81
2024-02-13T06:26:18.377Z,101365.59
2024-02-13T06:28:45.762Z,101361.59
2024-02-13T06:31:16.718Z,101372.03
2024-02-13T06:33:44.099Z,101377.75
2024-02-13T06:36:11.733Z,101375.53
2024-02-13T06:38:38.978Z,101366.88
2024-02-13T06:41:06.774Z,101386.66
2024-02-13T06:43:34.703Z,101387.28
2024-02-13T06:46:03.117Z,101394.34
2024-02-13T06:48:32.048Z,101394.97
2024-02-13T06:50:59.397Z,101401.84
2024-02-13T06:53:26.551Z,101397.72
2024-02-13T06:55:53.693Z,101402.09
2024-02-13T06:58:20.988Z,101396.72
2024-02-13T07:00:48.821Z,101395.16
2024-02-13T07:03:16.173Z,101411.63
2024-02-13T07:05:44.863Z,101409.06
2024-02-13T07:08:14.884Z,101416.13
2024-02-13T07:10:43.496Z,101412.78
2024-02-13T07:13:10.664Z,101421.34
2024-02-13T07:15:38.978Z,101419.50
2024-02-13T07:18:07.643Z,101416.38
2024-02-13T07:20:36.023Z,101414.63
2024-02-13T07:23:04.199Z,101426.16
2024-02-13T07:25:31.553Z,101426.88
2024-02-13T07:27:58.813Z,101430.38
2024-02-13T07:30:27.290Z,101428.47
2024-02-13T07:32:55.833Z,101435.50
2024-02-13T07:35:23.540Z,101436.66
2024-02-13T07:37:50.916Z,101441.63
2024-02-13T07:40:18.178Z,101440.63
2024-02-13T07:42:45.415Z,101443.56
2024-02-13T07:45:12.664Z,101438.66
2024-02-13T07:47:40.731Z,101447.25
2024-02-13T07:50:10.878Z,101447.97
2024-02-13T07:52:38.130Z,101447.47
2024-02-13T07:55:05.677Z,101451.00
2024-02-13T07:57:34.577Z,101443.47
2024-02-13T08:00:03.516Z,101451.34
2024-02-13T08:02:30.980Z,101464.53
2024-02-13T08:04:58.194Z,101455.25
2024-02-13T08:07:29.409Z,101463.25
2024-02-13T08:09:56.858Z,101463.13
2024-02-13T08:12:25.604Z,101461.03
2024-02-13T08:14:52.821Z,101456.91
2024-02-13T08:17:20.103Z,101464.53
2024-02-13T08:19:47.607Z,101459.66
2024-02-13T08:22:19.340Z,101469.84
2024-02-13T08:24:49.760Z,101469.69
2024-02-13T08:27:19.375Z,101477.75
2024-02-13T08:29:49.807Z,101465.81
2024-02-13T08:32:17.254Z,101473.34
2024-02-13T08:34:44.412Z,101477.81
2024-02-13T08:37:13.864Z,101479.72
2024-02-13T08:39:41.000Z,101477.41
2024-02-13T08:42:08.130Z,101470.75
2024-02-13T08:44:36.258Z,101474.69
2024-02-13T08:47:03.907Z,101475.66
2024-02-13T08:49:31.248Z,101480.66
2024-02-13T08:51:58.595Z,101482.63
2024-02-13T08:54:26.793Z,101484.56
2024-02-13T08:56:53.983Z,101487.00
2024-02-13T08:59:21.241Z,101482.00
2024-02-13T09:01:48.364Z,101487.44
2024-02-13T09:04:15.643Z,101485.13
2024-02-13T09:06:47.890Z,101498.44
2024-02-13T09:09:16.506Z,101489.22
2024-02-13T09:11:43.854Z,101489.72
2024-02-13T09:14:13.600Z,101507.03
2024-02-13T09:16:42.331Z,101502.16
2024-02-13T09:19:09.633Z,101493.59
2024-02-13T09:21:36.788Z,101500.53
2024-02-13T09:24:05.310Z,101498.97
2024-02-13T09:26:32.731Z,101516.16
2024-02-13T09:29:02.220Z,101513.16
2024-02-13T09:31:29.408Z,101520.16
2024-02-13T09:33:56.584Z,101508.91
2024-02-13T09:36:23.864Z,101513.75
2024-02-13T09:38:51.780Z,101508.28
2024-02-13T09:41:19.011Z,101514.50
2024-02-13T09:43:51.436Z,101510.50
2024-02-13T09:46:19.774Z,101509.94
2024-02-13T09:48:49.387Z,101513.28
2024-02-13T09:51:21.226Z,101514.47
2024-02-13T09:53:49.773Z,101516.94
2024-02-13T09:56:18.683Z,101506.66
2024-02-13T09:58:49.858Z,101516.03
2024-02-13T10:01:17.301Z,101519.53
2024-02-13T10:03:44.957Z,101512.06
2024-02-13T10:06:13.037Z,101517.06
2024-02-13T10:08:41.402Z,101514.53
2024-02-13T10:11:13.194Z,101506.06
2024-02-13T10:13:46.305Z,101528.88
2024-02-13T10:16:22.102Z,101517.59
2024-02-13T10:18:56.065Z,101531.69
2024-02-13T10:21:28.287Z,101525.47
2024-02-13T10:24:25.260Z,101527.84
2024-02-13T10:26:52.557Z,101533.91
2024-02-13T10:29:20.138Z,101532.91
2024-02-13T10:31:47.328Z,101529.88
2024-02-13T10:34:15.124Z,101519.88
2024-02-13T10:36:46.025Z,101526.28
2024-02-13T10:39:16.336Z,101525.22
2024-02-13T10:41:46.498Z,101526.38
2024-02-13T10:44:22.369Z,101535.53
2024-02-13T10:46:50.572Z,101532.34
2024-02-13T10:49:54.227Z,101537.88
2024-02-13T10:52:24.424Z,101535.22
2024-02-13T10:54:52.800Z,101535.94
2024-02-13T10:57:23.837Z,101546.59
2024-02-13T10:59:52.370Z,101541.75
2024-02-13T11:02:20.678Z,101543.59
2024-02-13T11:04:49.414Z,101541.06
2024-02-13T11:07:19.068Z,101546.59
2024-02-13T11:09:46.266Z,101551.78
2024-02-13T11:12:14.571Z,101545.78
2024-02-13T11:14:42.864Z,101557.69
2024-02-13T11:17:14.491Z,101555.53
2024-02-13T11:19:46.223Z,101553.72
2024-02-13T11:22:16.396Z,101544.09
2024-02-13T11:24:52.793Z,101539.63
2024-02-13T11:27:30.873Z,101552.53
2024-02-13T11:30:02.626Z,101545.25
2024-02-13T11:32:34.965Z,101543.41
2024-02-13T11:35:07.237Z,101553.25
2024-02-13T11:37:38.221Z,101562.19
2024-02-13T11:40:09.128Z,101552.00
2024-02-13T11:42:36.615Z,101552.38
2024-02-13T11:45:06.878Z,101556.72
2024-02-13T11:47:34.647Z,101553.81
2024-02-13T11:50:03.082Z,101547.44
2024-02-13T11:52:30.398Z,101548.00
2024-02-13T11:54:57.745Z,101546.63
2024-02-13T11:57:26.251Z,101541.72
2024-02-13T12:00:06.812Z,101542.50
2024-02-13T12:02:34.623Z,101537.91
2024-02-13T12:05:01.948Z,101539.34
2024-02-13T12:07:29.180Z,101543.84
2024-02-13T12:09:56.592Z,101544.41
2024-02-13T12:12:25.763Z,101548.63
2024-02-13T12:14:53.874Z,101547.09
2024-02-13T12:17:24.253Z,101549.88
2024-02-13T12:19:51.699Z,101551.38
2024-02-13T12:22:19.572Z,101549.22
2024-02-13T12:24:48.114Z,101550.84
2024-02-13T12:27:17.363Z,101530.44
2024-02-13T12:29:44.852Z,101533.69
2024-02-13T12:32:21.407Z,101546.28
2024-02-13T12:34:50.210Z,101532.09
2024-02-13T12:37:19.899Z,101537.56
2024-02-13T12:39:51.113Z,101536.66
2024-02-13T12:42:21.033Z,101539.97
2024-02-13T12:44:49.392Z,101538.53
2024-02-13T12:47:18.676Z,101543.38
2024-02-13T12:49:46.668Z,101536.72
2024-02-13T12:52:23.148Z,101538.72
2024-02-13T12:54:51.185Z,101538.78
2024-02-13T12:57:19.628Z,101546.66
2024-02-13T12:59:47.217Z,101547.34
2024-02-13T13:02:15.921Z,101534.22
2024-02-13T13:04:43.682Z,101543.53
2024-02-13T13:07:13.729Z,101555.81
2024-02-13T13:09:43.625Z,101540.13
2024-02-13T13:12:13.676Z,101550.31
2024-02-13T13:14:45.304Z,101535.91
2024-02-13T13:17:16.295Z,101538.38
2024-02-13T13:19:44.137Z,101534.88
2024-02-13T13:22:13.925Z,101530.44
2024-02-13T13:24:42.920Z,101529.16
2024-02-13T13:27:11.241Z,101533.53
2024-02-13T13:29:41.425Z,101531.53
2024-02-13T13:32:10.603Z,101538.03
2024-02-13T13:34:38.389Z,101531.41
2024-02-13T13:37:05.826Z,101525.56
2024-02-13T13:39:32.986Z,101526.03
2024-02-13T13:42:08.934Z,101524.72
2024-02-13T13:44:36.407Z,101514.56
2024-02-13T13:47:03.505Z,101521.00
2024-02-13T13:49:31.348Z,101518.16
2024-02-13T13:51:58.463Z,101516.72
2024-02-13T13:54:26.032Z,101506.72
2024-02-13T13:56:53.277Z,101515.69
2024-02-13T13:59:20.725Z,101515.34
2024-02-13T14:01:47.941Z,101512.06
2024-02-13T14:04:17.469Z,101511.94
2024-02-13T14:06:46.043Z,101509.84
2024-02-13T14:09:13.958Z,101508.00
2024-02-13T14:11:41.165Z,101507.66
2024-02-13T14:14:08.394Z,101511.19
2024-02-13T14:16:35.763Z,101513.91
2024-02-13T14:19:03.262Z,101514.28
2024-02-13T14:21:30.540Z,101506.59
2024-02-13T14:23:59.420Z,101515.41
2024-02-13T14:26:26.935Z,101511.78
2024-02-13T14:28:54.146Z,101512.13
2024-02-13T14:31:21.626Z,101518.97
2024-02-13T14:33:50.568Z,101497.19
2024-02-13T14:36:19.440Z,101512.19
2024-02-13T14:38:47.019Z,101517.09
2024-02-13T14:41:16.406Z,101518.91
2024-02-13T14:43:44.071Z,101526.31
2024-02-13T14:46:11.361Z,101515.09
2024-02-13T14:48:38.845Z,101508.06
2024-02-13T14:51:07.313Z,101517.69
2024-02-13T14:53:34.688Z,101506.78
2024-02-13T14:56:01.978Z,101502.47
2024-02-13T14:58:38.260Z,101499.91
2024-02-13T15:01:10.538Z,101495.47
2024-02-13T15:03:38.337Z,101515.41
2024-02-13T15:06:05.840Z,101519.59
2024-02-13T15:08:35.671Z,101520.16
2024-02-13T15:11:05.122Z,101507.03
2024-02-13T15:13:35.282Z,101515.28
2024-02-13T15:16:03.556Z,101512.16
2024-02-13T15:18:31.086Z,101507.78
2024-02-13T15:21:01.679Z,101506.78
2024-02-13T15:23:30.855Z,101506.22
2024-02-13T15:25:58.846Z,101498.53
2024-02-13T15:28:27.041Z,101506.91
2024-02-13T15:30:54.367Z,101499.63
2024-02-13T15:33:26.586Z,101498.81
2024-02-13T15:36:04.240Z,101497.16
2024-02-13T15:38:55.341Z,101485.63
2024-02-13T15:41:40.863Z,101494.38
2024-02-13T15:44:26.437Z,101495.22
2024-02-13T15:46:59.836Z,101502.06
2024-02-13T15:49:27.307Z,101496.22
2024-02-13T15:51:55.266Z,101489.06
2024-02-13T15:54:22.382Z,101487.16
2024-02-13T15:56:50.395Z,101496.38
2024-02-13T15:59:18.377Z,101488.78
2024-02-13T16:01:47.319Z,101483.59
2024-02-13T16:04:19.101Z,101490.34
2024-02-13T16:06:48.289Z,101492.72
2024-02-13T16:09:19.358Z,101492.00
2024-02-13T16:11:47.056Z,101489.22
2024-02-13T16:14:14.370Z,101494.53
2024-02-13T16:16:41.516Z,101492.13
2024-02-13T16:19:10.357Z,101486.66
2024-02-13T16:21:37.639Z,101492.56
2024-02-13T16:24:05.444Z,101484.81
2024-02-13T16:26:33.312Z,101484.03
2024-02-13T16:29:00.776Z,101483.94
2024-02-13T16:31:28.259Z,101497.56
2024-02-13T16:33:55.455Z,101489.78
2024-02-13T16:36:23.726Z,101488.84
2024-02-13T16:38:51.030Z,101492.22
2024-02-13T16:41:19.788Z,101499.84
2024-02-13T16:43:50.301Z,101490.91
2024-02-13T16:46:22.611Z,101484.69
2024-02-13T16:48:54.641Z,101501.09
2024-02-13T16:51:22.855Z,101494.31
2024-02-13T16:53:50.226Z,101490.97
2024-02-13T16:56:18.296Z,101511.66
2024-02-13T16:58:46.129Z,101502.66
2024-02-13T17:01:16.157Z,101516.88
2024-02-13T17:03:47.918Z,101513.47
2024-02-13T17:06:15.891Z,101508.91
2024-02-13T17:08:43.934Z,101511.41
2024-02-13T17:11:11.265Z,101515.03
2024-02-13T17:13:38.329Z,101521.41
2024-02-13T17:16:08.340Z,101512.75
2024-02-13T17:18:35.644Z,101517.97
2024-02-13T17:21:02.935Z,101525.19
2024-02-13T17:23:30.099Z,101523.75
2024-02-13T17:25:57.294Z,101525.97
2024-02-13T17:28:24.490Z,101520.13
2024-02-13T17:30:52.163Z,101519.81
2024-02-13T17:33:19.431Z,101524.97
2024-02-13T17:35:47.386Z,101517.28
2024-02-13T17:38:14.608Z,101522.94
2024-02-13T17:40:42.040Z,101518.19
2024-02-13T17:43:13.340Z,101511.78
2024-02-13T17:45:41.618Z,101520.75
2024-02-13T17:48:10.859Z,101511.34
2024-02-13T17:50:38.274Z,101514.06
2024-02-13T17:53:05.416Z,101514.03
2024-02-13T17:55:32.620Z,101514.06
2024-02-13T17:57:59.761Z,101512.38
2024-02-13T18:00:27.457Z,101508.69
2024-02-13T18:02:55.007Z,101501.63
2024-02-13T18:05:22.330Z,101504.16
2024-02-13T18:07:49.585Z,101499.06
2024-02-13T18:10:19.733Z,101491.16
2024-02-13T18:12:50.086Z,101494.75
2024-02-13T18:15:17.815Z,101493.78
2024-02-13T18:17:46.413Z,101492.84
2024-02-13T18:20:16.041Z,101487.59
2024-02-13T18:22:45.483Z,101487.59
2024-02-13T18:25:15.249Z,101482.31
2024-02-13T18:27:42.631Z,101477.16
2024-02-13T18:30:10.042Z,101476.97
2024-02-13T18:32:37.424Z,101474.44
2024-02-13T18:35:04.900Z,101471.81
2024-02-13T18:37:31.988Z,101471.03
2024-02-13T18:39:59.095Z,101469.19
2024-02-13T18:42:26.226Z,101464.88
2024-02-13T18:44:54.091Z,101458.88
2024-02-13T18:47:21.240Z,101460.44
2024-02-13T18:49:48.738Z,101456.97
2024-02-13T18:52:16.124Z,101455.09
2024-02-13T18:54:44.057Z,101449.81
2024-02-13T18:57:15.293Z,101451.59
2024-02-13T18:59:43.408Z,101441.22
2024-02-13T19:02:11.608Z,101437.50
2024-02-13T19:04:39.897Z,101440.91
2024-02-13T19:07:07.210Z,101424.44
2024-02-13T19:09:34.470Z,101435.00
2024-02-13T19:12:06.404Z,101435.88
2024-02-13T19:14:33.612Z,101431.59
2024-02-13T19:17:00.906Z,101428.97
2024-02-13T19:19:28.135Z,101428.97
2024-02-13T19:21:55.222Z,101423.94
2024-02-13T19:24:23.112Z,101424.94
2024-02-13T19:26:51.220Z,101420.63
2024-02-13T19:29:18.371Z,101418.66
2024-02-13T19:31:45.962Z,101418.19
2024-02-13T19:34:13.670Z,101417.13
2024-02-13T19:36:41.227Z,101416.56
2024-02-13T19:39:08.611Z,101406.97
2024-02-13T19:41:35.807Z,101397.66
2024-02-13T19:44:03.329Z,101395.94
2024-02-13T19:46:30.692Z,101396.84
2024-02-13T19:48:57.955Z,101396.88
2024-02-13T19:51:25.055Z,101395.13
2024-02-13T19:53:54.360Z,101390.78
2024-02-13T19:56:21.532Z,101385.81
2024-02-13T19:58:48.678Z,101378.00
2024-02-13T20:01:16.788Z,101372.88
2024-02-13T20:03:44.163Z,101369.38
2024-02-13T20:06:11.331Z,101364.16
2024-02-13T20:08:40.029Z,101370.34
2024-02-13T20:11:07.426Z,101360.94
2024-02-13T20:13:38.933Z,101359.19
2024-02-13T20:16:06.197Z,101333.97
2024-02-13T20:18:34.286Z,101353.31
2024-02-13T20:21:05.093Z,101353.81
2024-02-13T20:23:35.964Z,101352.03
2024-02-13T20:26:03.309Z,101353.84
2024-02-13T20:28:30.420Z,101346.06
2024-02-13T20:30:57.598Z,101351.53
2024-02-13T20:33:27.217Z,101340.34
2024-02-13T20:36:00.284Z,101343.00
2024-02-13T20:38:27.862Z,101339.00
2024-02-13T20:40:57.081Z,101332.09
2024-02-13T20:43:24.899Z,101326.47
2024-02-13T20:45:52.393Z,101323.16
2024-02-13T20:48:20.114Z,101313.78
2024-02-13T20:50:47.799Z,101319.94
2024-02-13T20:53:15.639Z,101309.53
2024-02-13T20:55:45.231Z,101304.38
2024-02-13T20:58:15.456Z,101303.78
2024-02-13T21:00:44.823Z,101313.31
2024-02-13T21:03:12.281Z,101309.09
2024-02-13T21:05:42.780Z,101302.28
2024-02-13T21:08:10.242Z,101298.78
2024-02-13T21:10:37.746Z,101296.34
2024-02-13T21:13:05.448Z,101293.56
2024-02-13T21:15:34.944Z,101298.88
2024-02-13T21:18:02.509Z,101290.31
2024-02-13T21:20:31.325Z,101290.19
2024-02-13T21:23:24.431Z,101281.03
2024-02-13T21:25:51.548Z,101274.16
2024-02-13T21:28:19.119Z,101269.00
2024-02-13T21:30:46.331Z,101260.03
2024-02-13T21:33:13.710Z,101264.50
2024-02-13T21:35:41.074Z,101262.00
2024-02-13T21:38:09.737Z,101266.06
2024-02-13T21:40:38.908Z,101261.91
2024-02-13T21:43:06.306Z,101262.75
2024-02-13T21:45:34.026Z,101268.06
2024-02-13T21:48:01.305Z,101273.13
2024-02-13T21:50:29.746Z,101270.22
2024-02-13T21:52:56.949Z,101268.91
2024-02-13T21:55:24.132Z,101268.06
2024-02-13T21:57:51.524Z,101266.16
2024-02-13T22:00:18.889Z,101258.22
2024-02-13T22:02:46.610Z,101264.91
2024-02-13T22:05:15.331Z,101253.47
2024-02-13T22:07:43.345Z,101257.84
2024-02-13T22:10:13.370Z,101256.50
2024-02-13T22:12:42.974Z,101257.47
2024-02-13T22:15:11.873Z,101250.97
2024-02-13T22:17:39.504Z,101249.25
2024-02-13T22:20:08.649Z,101241.63
2024-02-13T22:22:35.933Z,101239.09
2024-02-13T22:25:03.504Z,101235.50
2024-02-13T22:27:30.739Z,101228.59
2024-02-13T22:29:58.762Z,101231.63
2024-02-13T22:32:26.262Z,101222.00
2024-02-13T22:34:57.654Z,101218.94
2024-02-13T22:37:25.936Z,101216.91
2024-02-13T22:39:53.223Z,101213.94
2024-02-13T22:42:20.340Z,101206.16
2024-02-13T22:44:47.506Z,101209.56
2024-02-13T22:47:14.786Z,101206.84
2024-02-13T22:49:42.221Z,101193.97
2024-02-13T22:52:09.358Z,101197.44
2024-02-13T22:54:36.468Z,101197.44
2024-02-13T22:57:05.407Z,101195.09
2024-02-13T22:59:34.965Z,101197.16
2024-02-13T23:02:04.312Z,101192.69
2024-02-13T23:04:31.536Z,101172.13
2024-02-13T23:06:59.893Z,101186.56
2024-02-13T23:09:27.224Z,101189.13
2024-02-13T23:11:54.701Z,101177.66
2024-02-13T23:14:22.235Z,101166.75
2024-02-13T23:16:49.454Z,101171.03
2024-02-13T23:19:19.628Z,101179.84
2024-02-13T23:21:47.638Z,101174.50
2024-02-13T23:24:16.208Z,101172.22
2024-02-13T23:26:43.818Z,101168.91
2024-02-13T23:29:12.643Z,101153.34
2024-02-13T23:31:40.338Z,101157.78
2024-02-13T23:34:10.425Z,101141.50
2024-02-13T23:36:37.750Z,101157.06
2024-02-13T23:39:05.005Z,101151.91
2024-02-13T23:41:32.227Z,101145.84
2024-02-13T23:43:59.537Z,101160.97
2024-02-13T23:46:26.876Z,101145.06
2024-02-13T23:48:54.338Z,101150.38
2024-02-13T23:51:21.751Z,101148.41
2024-02-13T23:53:50.026Z,101140.50
2024-02-13T23:56:18.741Z,101149.22
2024-02-13T23:58:47.561Z,101145.09
